sensor_id;sensor_type;location;lat;lon;timestamp;P1;durP1;ratioP1;P2;durP2;ratioP2
27706;SDS011;36332;51.384;0.040;2023-02-15T00:00:09;90.82;;;42.30;;
27706;SDS011;36332;51.384;0.040;2023-02-15T00:02:38;88.55;;;43.67;;
27706;SDS011;36332;51.384;0.040;2023-02-15T00:05:06;85.55;;;42.35;;
27706;SDS011;36332;51.384;0.040;2023-02-15T00:07:34;92.43;;;44.20;;
27706;SDS011;36332;51.384;0.040;2023-02-15T00:10:02;92.95;;;44.78;;
27706;SDS011;36332;51.384;0.040;2023-02-15T00:12:30;88.25;;;44.65;;
27706;SDS011;36332;51.384;0.040;2023-02-15T00:14:57;96.22;;;48.25;;
27706;SDS011;36332;51.384;0.040;2023-02-15T00:17:28;90.82;;;45.15;;
27706;SDS011;36332;51.384;0.040;2023-02-15T00:19:56;88.13;;;45.83;;
27706;SDS011;36332;51.384;0.040;2023-02-15T00:22:24;95.95;;;47.70;;
27706;SDS011;36332;51.384;0.040;2023-02-15T00:24:52;94.03;;;46.67;;
27706;SDS011;36332;51.384;0.040;2023-02-15T00:27:20;93.13;;;48.42;;
27706;SDS011;36332;51.384;0.040;2023-02-15T00:29:50;93.05;;;44.03;;
27706;SDS011;36332;51.384;0.040;2023-02-15T00:32:18;87.63;;;47.83;;
27706;SDS011;36332;51.384;0.040;2023-02-15T00:34:46;100.13;;;48.78;;
27706;SDS011;36332;51.384;0.040;2023-02-15T00:37:13;89.88;;;44.38;;
27706;SDS011;36332;51.384;0.040;2023-02-15T00:39:41;88.82;;;46.33;;
27706;SDS011;36332;51.384;0.040;2023-02-15T00:42:09;93.60;;;47.00;;
27706;SDS011;36332;51.384;0.040;2023-02-15T00:44:36;90.10;;;46.95;;
27706;SDS011;36332;51.384;0.040;2023-02-15T00:47:04;89.20;;;44.83;;
27706;SDS011;36332;51.384;0.040;2023-02-15T00:49:31;86.55;;;46.35;;
27706;SDS011;36332;51.384;0.040;2023-02-15T00:52:01;89.07;;;43.65;;
27706;SDS011;36332;51.384;0.040;2023-02-15T00:54:29;89.22;;;45.95;;
27706;SDS011;36332;51.384;0.040;2023-02-15T00:56:56;84.80;;;44.80;;
27706;SDS011;36332;51.384;0.040;2023-02-15T00:59:24;93.22;;;45.88;;
27706;SDS011;36332;51.384;0.040;2023-02-15T01:01:51;89.57;;;45.72;;
27706;SDS011;36332;51.384;0.040;2023-02-15T01:04:20;95.13;;;46.33;;
27706;SDS011;36332;51.384;0.040;2023-02-15T01:06:47;93.47;;;46.35;;
27706;SDS011;36332;51.384;0.040;2023-02-15T01:09:15;92.10;;;47.42;;
27706;SDS011;36332;51.384;0.040;2023-02-15T01:11:43;92.95;;;46.08;;
27706;SDS011;36332;51.384;0.040;2023-02-15T01:14:12;88.13;;;46.08;;
27706;SDS011;36332;51.384;0.040;2023-02-15T01:16:42;95.55;;;47.72;;
27706;SDS011;36332;51.384;0.040;2023-02-15T01:19:09;92.00;;;46.53;;
27706;SDS011;36332;51.384;0.040;2023-02-15T01:21:38;102.40;;;48.08;;
27706;SDS011;36332;51.384;0.040;2023-02-15T01:24:12;104.03;;;48.30;;
27706;SDS011;36332;51.384;0.040;2023-02-15T01:26:40;94.28;;;45.47;;
27706;SDS011;36332;51.384;0.040;2023-02-15T01:29:08;97.15;;;47.55;;
27706;SDS011;36332;51.384;0.040;2023-02-15T01:31:36;89.20;;;47.78;;
27706;SDS011;36332;51.384;0.040;2023-02-15T01:34:06;93.78;;;48.00;;
27706;SDS011;36332;51.384;0.040;2023-02-15T01:36:33;93.57;;;46.60;;
27706;SDS011;36332;51.384;0.040;2023-02-15T01:39:02;91.07;;;46.22;;
27706;SDS011;36332;51.384;0.040;2023-02-15T01:41:30;98.93;;;46.92;;
27706;SDS011;36332;51.384;0.040;2023-02-15T01:44:00;95.13;;;49.03;;
27706;SDS011;36332;51.384;0.040;2023-02-15T01:46:36;104.15;;;46.33;;
27706;SDS011;36332;51.384;0.040;2023-02-15T01:49:14;91.90;;;46.15;;
27706;SDS011;36332;51.384;0.040;2023-02-15T01:51:44;93.20;;;46.28;;
27706;SDS011;36332;51.384;0.040;2023-02-15T01:54:18;97.40;;;49.28;;
27706;SDS011;36332;51.384;0.040;2023-02-15T01:56:52;98.40;;;49.00;;
27706;SDS011;36332;51.384;0.040;2023-02-15T01:59:22;93.00;;;47.28;;
27706;SDS011;36332;51.384;0.040;2023-02-15T02:01:52;91.30;;;45.35;;
27706;SDS011;36332;51.384;0.040;2023-02-15T02:04:33;100.20;;;48.25;;
27706;SDS011;36332;51.384;0.040;2023-02-15T02:07:08;93.93;;;50.00;;
27706;SDS011;36332;51.384;0.040;2023-02-15T02:09:39;91.57;;;47.80;;
27706;SDS011;36332;51.384;0.040;2023-02-15T02:12:07;95.88;;;48.03;;
27706;SDS011;36332;51.384;0.040;2023-02-15T02:14:38;96.20;;;47.70;;
27706;SDS011;36332;51.384;0.040;2023-02-15T02:20:03;93.05;;;47.33;;
27706;SDS011;36332;51.384;0.040;2023-02-15T02:39:22;100.72;;;50.67;;
27706;SDS011;36332;51.384;0.040;2023-02-15T02:42:12;110.00;;;49.15;;
27706;SDS011;36332;51.384;0.040;2023-02-15T02:44:51;107.20;;;52.33;;
27706;SDS011;36332;51.384;0.040;2023-02-15T02:50:16;104.10;;;51.50;;
27706;SDS011;36332;51.384;0.040;2023-02-15T02:52:53;103.88;;;50.08;;
27706;SDS011;36332;51.384;0.040;2023-02-15T03:01:13;107.22;;;52.00;;
27706;SDS011;36332;51.384;0.040;2023-02-15T03:06:19;99.07;;;50.70;;
27706;SDS011;36332;51.384;0.040;2023-02-15T03:08:54;103.82;;;52.80;;
27706;SDS011;36332;51.384;0.040;2023-02-15T03:11:28;98.60;;;49.63;;
27706;SDS011;36332;51.384;0.040;2023-02-15T03:13:57;110.85;;;53.70;;
27706;SDS011;36332;51.384;0.040;2023-02-15T03:16:26;107.70;;;49.85;;
27706;SDS011;36332;51.384;0.040;2023-02-15T03:19:00;105.35;;;52.40;;
27706;SDS011;36332;51.384;0.040;2023-02-15T03:21:40;94.88;;;49.55;;
27706;SDS011;36332;51.384;0.040;2023-02-15T03:24:26;104.25;;;51.38;;
27706;SDS011;36332;51.384;0.040;2023-02-15T03:27:10;110.60;;;51.80;;
27706;SDS011;36332;51.384;0.040;2023-02-15T03:29:48;98.55;;;48.00;;
27706;SDS011;36332;51.384;0.040;2023-02-15T03:32:20;95.65;;;48.35;;
27706;SDS011;36332;51.384;0.040;2023-02-15T03:34:50;102.10;;;49.85;;
27706;SDS011;36332;51.384;0.040;2023-02-15T03:40:16;97.68;;;51.05;;
27706;SDS011;36332;51.384;0.040;2023-02-15T03:43:21;97.47;;;47.35;;
27706;SDS011;36332;51.384;0.040;2023-02-15T03:46:06;93.32;;;47.53;;
27706;SDS011;36332;51.384;0.040;2023-02-15T03:48:43;105.10;;;50.63;;
27706;SDS011;36332;51.384;0.040;2023-02-15T03:51:20;105.40;;;50.05;;
27706;SDS011;36332;51.384;0.040;2023-02-15T03:56:36;98.13;;;49.13;;
27706;SDS011;36332;51.384;0.040;2023-02-15T03:59:07;103.35;;;50.63;;
27706;SDS011;36332;51.384;0.040;2023-02-15T04:04:48;109.97;;;50.53;;
27706;SDS011;36332;51.384;0.040;2023-02-15T04:07:16;121.80;;;56.45;;
27706;SDS011;36332;51.384;0.040;2023-02-15T04:09:44;127.90;;;58.50;;
27706;SDS011;36332;51.384;0.040;2023-02-15T04:12:30;131.75;;;60.33;;
27706;SDS011;36332;51.384;0.040;2023-02-15T04:14:58;117.70;;;56.72;;
27706;SDS011;36332;51.384;0.040;2023-02-15T04:17:44;132.10;;;60.90;;
27706;SDS011;36332;51.384;0.040;2023-02-15T04:20:11;146.30;;;64.88;;
27706;SDS011;36332;51.384;0.040;2023-02-15T04:22:57;167.45;;;73.43;;
27706;SDS011;36332;51.384;0.040;2023-02-15T04:25:43;142.68;;;67.22;;
27706;SDS011;36332;51.384;0.040;2023-02-15T04:28:11;144.15;;;68.65;;
27706;SDS011;36332;51.384;0.040;2023-02-15T04:30:38;158.80;;;70.00;;
27706;SDS011;36332;51.384;0.040;2023-02-15T04:33:06;156.20;;;73.13;;
27706;SDS011;36332;51.384;0.040;2023-02-15T04:35:33;145.20;;;70.72;;
27706;SDS011;36332;51.384;0.040;2023-02-15T04:38:01;148.63;;;71.50;;
27706;SDS011;36332;51.384;0.040;2023-02-15T04:40:28;155.73;;;74.18;;
27706;SDS011;36332;51.384;0.040;2023-02-15T04:42:56;153.27;;;69.45;;
27706;SDS011;36332;51.384;0.040;2023-02-15T04:45:23;155.77;;;72.40;;
27706;SDS011;36332;51.384;0.040;2023-02-15T04:47:51;150.88;;;68.53;;
27706;SDS011;36332;51.384;0.040;2023-02-15T04:50:19;156.73;;;70.15;;
27706;SDS011;36332;51.384;0.040;2023-02-15T04:52:46;171.57;;;74.68;;
27706;SDS011;36332;51.384;0.040;2023-02-15T04:55:14;166.82;;;76.13;;
27706;SDS011;36332;51.384;0.040;2023-02-15T04:57:41;148.88;;;71.93;;
27706;SDS011;36332;51.384;0.040;2023-02-15T05:00:09;157.80;;;72.88;;
27706;SDS011;36332;51.384;0.040;2023-02-15T05:02:37;165.38;;;73.35;;
27706;SDS011;36332;51.384;0.040;2023-02-15T05:05:04;160.65;;;71.82;;
27706;SDS011;36332;51.384;0.040;2023-02-15T05:07:32;157.27;;;72.38;;
27706;SDS011;36332;51.384;0.040;2023-02-15T05:09:59;152.15;;;73.60;;
27706;SDS011;36332;51.384;0.040;2023-02-15T05:12:27;158.52;;;73.45;;
27706;SDS011;36332;51.384;0.040;2023-02-15T05:14:55;160.98;;;71.75;;
27706;SDS011;36332;51.384;0.040;2023-02-15T05:17:22;145.88;;;72.93;;
27706;SDS011;36332;51.384;0.040;2023-02-15T05:19:49;158.70;;;71.50;;
27706;SDS011;36332;51.384;0.040;2023-02-15T05:25:20;145.93;;;68.65;;
27706;SDS011;36332;51.384;0.040;2023-02-15T05:28:10;142.60;;;70.10;;
27706;SDS011;36332;51.384;0.040;2023-02-15T05:30:51;160.45;;;72.55;;
27706;SDS011;36332;51.384;0.040;2023-02-15T05:33:38;145.65;;;70.68;;
27706;SDS011;36332;51.384;0.040;2023-02-15T05:36:06;150.88;;;70.07;;
27706;SDS011;36332;51.384;0.040;2023-02-15T05:38:35;142.80;;;69.50;;
27706;SDS011;36332;51.384;0.040;2023-02-15T05:41:08;141.43;;;68.10;;
27706;SDS011;36332;51.384;0.040;2023-02-15T05:43:37;148.40;;;71.10;;
27706;SDS011;36332;51.384;0.040;2023-02-15T05:46:06;143.25;;;68.80;;
27706;SDS011;36332;51.384;0.040;2023-02-15T05:48:36;140.98;;;66.82;;
27706;SDS011;36332;51.384;0.040;2023-02-15T05:51:04;148.38;;;72.47;;
27706;SDS011;36332;51.384;0.040;2023-02-15T05:53:35;156.70;;;70.55;;
27706;SDS011;36332;51.384;0.040;2023-02-15T05:56:05;154.45;;;72.35;;
27706;SDS011;36332;51.384;0.040;2023-02-15T05:58:36;141.90;;;69.45;;
27706;SDS011;36332;51.384;0.040;2023-02-15T06:01:09;146.82;;;70.53;;
27706;SDS011;36332;51.384;0.040;2023-02-15T06:03:38;134.35;;;67.80;;
27706;SDS011;36332;51.384;0.040;2023-02-15T06:06:06;141.18;;;68.80;;
27706;SDS011;36332;51.384;0.040;2023-02-15T06:08:35;141.48;;;66.45;;
27706;SDS011;36332;51.384;0.040;2023-02-15T06:11:05;144.77;;;68.05;;
27706;SDS011;36332;51.384;0.040;2023-02-15T06:13:33;136.45;;;66.13;;
27706;SDS011;36332;51.384;0.040;2023-02-15T06:16:05;146.23;;;67.85;;
27706;SDS011;36332;51.384;0.040;2023-02-15T06:18:34;129.20;;;62.22;;
27706;SDS011;36332;51.384;0.040;2023-02-15T06:21:02;133.63;;;64.55;;
27706;SDS011;36332;51.384;0.040;2023-02-15T06:23:30;137.98;;;66.20;;
27706;SDS011;36332;51.384;0.040;2023-02-15T06:26:00;145.75;;;66.80;;
27706;SDS011;36332;51.384;0.040;2023-02-15T06:28:28;136.57;;;63.10;;
27706;SDS011;36332;51.384;0.040;2023-02-15T06:30:56;129.82;;;63.90;;
27706;SDS011;36332;51.384;0.040;2023-02-15T06:33:24;135.82;;;65.18;;
27706;SDS011;36332;51.384;0.040;2023-02-15T06:35:52;139.20;;;65.80;;
27706;SDS011;36332;51.384;0.040;2023-02-15T06:38:20;138.45;;;65.97;;
27706;SDS011;36332;51.384;0.040;2023-02-15T06:40:48;137.73;;;65.00;;
27706;SDS011;36332;51.384;0.040;2023-02-15T06:43:18;130.02;;;65.70;;
27706;SDS011;36332;51.384;0.040;2023-02-15T06:45:46;125.47;;;62.53;;
27706;SDS011;36332;51.384;0.040;2023-02-15T06:48:14;128.15;;;61.53;;
27706;SDS011;36332;51.384;0.040;2023-02-15T06:50:42;120.25;;;62.53;;
27706;SDS011;36332;51.384;0.040;2023-02-15T06:53:10;125.82;;;62.22;;
27706;SDS011;36332;51.384;0.040;2023-02-15T06:55:38;131.02;;;64.15;;
27706;SDS011;36332;51.384;0.040;2023-02-15T06:58:06;128.65;;;62.63;;
27706;SDS011;36332;51.384;0.040;2023-02-15T07:00:34;130.43;;;61.83;;
27706;SDS011;36332;51.384;0.040;2023-02-15T07:03:02;126.28;;;62.58;;
27706;SDS011;36332;51.384;0.040;2023-02-15T07:05:32;135.18;;;62.78;;
27706;SDS011;36332;51.384;0.040;2023-02-15T07:08:02;133.27;;;64.05;;
27706;SDS011;36332;51.384;0.040;2023-02-15T07:10:30;138.35;;;63.92;;
27706;SDS011;36332;51.384;0.040;2023-02-15T07:12:59;127.88;;;64.80;;
27706;SDS011;36332;51.384;0.040;2023-02-15T07:15:27;129.82;;;62.95;;
27706;SDS011;36332;51.384;0.040;2023-02-15T07:17:54;132.40;;;63.30;;
27706;SDS011;36332;51.384;0.040;2023-02-15T07:20:24;136.73;;;68.78;;
27706;SDS011;36332;51.384;0.040;2023-02-15T07:22:52;134.07;;;64.70;;
27706;SDS011;36332;51.384;0.040;2023-02-15T07:25:20;130.27;;;66.18;;
27706;SDS011;36332;51.384;0.040;2023-02-15T07:27:48;124.00;;;63.28;;
27706;SDS011;36332;51.384;0.040;2023-02-15T07:30:17;130.00;;;62.53;;
27706;SDS011;36332;51.384;0.040;2023-02-15T07:32:44;140.85;;;65.03;;
27706;SDS011;36332;51.384;0.040;2023-02-15T07:35:32;135.05;;;62.92;;
27706;SDS011;36332;51.384;0.040;2023-02-15T07:38:00;123.32;;;63.85;;
27706;SDS011;36332;51.384;0.040;2023-02-15T07:40:29;132.25;;;63.38;;
27706;SDS011;36332;51.384;0.040;2023-02-15T07:42:57;130.00;;;63.33;;
27706;SDS011;36332;51.384;0.040;2023-02-15T07:45:26;133.38;;;63.22;;
27706;SDS011;36332;51.384;0.040;2023-02-15T07:47:54;134.55;;;62.58;;
27706;SDS011;36332;51.384;0.040;2023-02-15T07:50:22;130.73;;;63.83;;
27706;SDS011;36332;51.384;0.040;2023-02-15T07:52:51;134.00;;;65.65;;
27706;SDS011;36332;51.384;0.040;2023-02-15T07:55:20;129.77;;;64.43;;
27706;SDS011;36332;51.384;0.040;2023-02-15T07:57:49;133.48;;;67.20;;
27706;SDS011;36332;51.384;0.040;2023-02-15T08:00:21;128.43;;;62.97;;
27706;SDS011;36332;51.384;0.040;2023-02-15T08:02:54;130.40;;;60.58;;
27706;SDS011;36332;51.384;0.040;2023-02-15T08:05:42;121.70;;;60.25;;
27706;SDS011;36332;51.384;0.040;2023-02-15T08:08:11;123.40;;;60.70;;
27706;SDS011;36332;51.384;0.040;2023-02-15T08:11:05;110.95;;;57.83;;
27706;SDS011;36332;51.384;0.040;2023-02-15T08:14:08;112.57;;;57.05;;
27706;SDS011;36332;51.384;0.040;2023-02-15T08:16:42;108.50;;;55.17;;
27706;SDS011;36332;51.384;0.040;2023-02-15T08:21:46;111.45;;;56.03;;
27706;SDS011;36332;51.384;0.040;2023-02-15T08:24:17;117.07;;;54.60;;
27706;SDS011;36332;51.384;0.040;2023-02-15T08:26:52;104.85;;;53.90;;
27706;SDS011;36332;51.384;0.040;2023-02-15T08:29:21;110.07;;;54.83;;
27706;SDS011;36332;51.384;0.040;2023-02-15T08:31:56;105.47;;;52.67;;
27706;SDS011;36332;51.384;0.040;2023-02-15T08:34:29;103.10;;;52.50;;
27706;SDS011;36332;51.384;0.040;2023-02-15T08:37:01;109.85;;;53.33;;
27706;SDS011;36332;51.384;0.040;2023-02-15T08:39:28;106.35;;;54.22;;
27706;SDS011;36332;51.384;0.040;2023-02-15T08:41:59;102.72;;;52.97;;
27706;SDS011;36332;51.384;0.040;2023-02-15T08:44:28;104.78;;;51.60;;
27706;SDS011;36332;51.384;0.040;2023-02-15T08:46:59;95.70;;;51.80;;
27706;SDS011;36332;51.384;0.040;2023-02-15T08:49:32;99.80;;;52.13;;
27706;SDS011;36332;51.384;0.040;2023-02-15T08:52:00;98.00;;;50.05;;
27706;SDS011;36332;51.384;0.040;2023-02-15T08:54:28;98.05;;;51.13;;
27706;SDS011;36332;51.384;0.040;2023-02-15T08:56:56;97.70;;;51.58;;
27706;SDS011;36332;51.384;0.040;2023-02-15T08:59:24;96.95;;;50.08;;
27706;SDS011;36332;51.384;0.040;2023-02-15T09:01:54;98.28;;;48.40;;
27706;SDS011;36332;51.384;0.040;2023-02-15T09:04:22;93.22;;;48.90;;
27706;SDS011;36332;51.384;0.040;2023-02-15T09:06:54;88.38;;;46.35;;
27706;SDS011;36332;51.384;0.040;2023-02-15T09:09:24;92.38;;;46.83;;
27706;SDS011;36332;51.384;0.040;2023-02-15T09:11:54;85.43;;;45.88;;
27706;SDS011;36332;51.384;0.040;2023-02-15T09:14:27;85.72;;;45.67;;
27706;SDS011;36332;51.384;0.040;2023-02-15T09:16:55;87.07;;;44.65;;
27706;SDS011;36332;51.384;0.040;2023-02-15T09:19:26;85.88;;;44.00;;
27706;SDS011;36332;51.384;0.040;2023-02-15T09:21:57;84.28;;;43.55;;
27706;SDS011;36332;51.384;0.040;2023-02-15T09:24:31;72.20;;;41.47;;
27706;SDS011;36332;51.384;0.040;2023-02-15T09:26:59;78.07;;;40.95;;
27706;SDS011;36332;51.384;0.040;2023-02-15T09:29:28;69.85;;;40.17;;
27706;SDS011;36332;51.384;0.040;2023-02-15T09:31:56;76.63;;;38.92;;
27706;SDS011;36332;51.384;0.040;2023-02-15T09:34:24;75.97;;;40.75;;
27706;SDS011;36332;51.384;0.040;2023-02-15T09:36:52;71.00;;;36.75;;
27706;SDS011;36332;51.384;0.040;2023-02-15T09:39:23;69.05;;;38.40;;
27706;SDS011;36332;51.384;0.040;2023-02-15T09:53:01;60.17;;;35.70;;
27706;SDS011;36332;51.384;0.040;2023-02-15T10:01:20;56.75;;;34.42;;
27706;SDS011;36332;51.384;0.040;2023-02-15T10:09:12;62.40;;;35.70;;
27706;SDS011;36332;51.384;0.040;2023-02-15T10:18:18;54.75;;;31.08;;
27706;SDS011;36332;51.384;0.040;2023-02-15T10:23:49;51.38;;;31.27;;
27706;SDS011;36332;51.384;0.040;2023-02-15T10:26:46;59.08;;;31.80;;
27706;SDS011;36332;51.384;0.040;2023-02-15T10:49:06;47.45;;;27.75;;
27706;SDS011;36332;51.384;0.040;2023-02-15T10:54:40;53.22;;;26.75;;
27706;SDS011;36332;51.384;0.040;2023-02-15T10:57:27;43.00;;;24.85;;
27706;SDS011;36332;51.384;0.040;2023-02-15T11:00:13;41.97;;;25.60;;
27706;SDS011;36332;51.384;0.040;2023-02-15T11:08:35;37.05;;;23.20;;
27706;SDS011;36332;51.384;0.040;2023-02-15T11:11:07;37.30;;;22.42;;
27706;SDS011;36332;51.384;0.040;2023-02-15T11:13:43;41.20;;;23.27;;
27706;SDS011;36332;51.384;0.040;2023-02-15T11:16:20;38.92;;;22.45;;
27706;SDS011;36332;51.384;0.040;2023-02-15T11:18:58;35.38;;;22.63;;
27706;SDS011;36332;51.384;0.040;2023-02-15T11:21:33;41.35;;;23.17;;
27706;SDS011;36332;51.384;0.040;2023-02-15T11:24:15;42.95;;;23.73;;
27706;SDS011;36332;51.384;0.040;2023-02-15T11:29:33;33.97;;;19.05;;
27706;SDS011;36332;51.384;0.040;2023-02-15T11:35:32;37.75;;;21.60;;
27706;SDS011;36332;51.384;0.040;2023-02-15T11:40:43;33.97;;;21.33;;
27706;SDS011;36332;51.384;0.040;2023-02-15T11:43:22;43.47;;;22.38;;
27706;SDS011;36332;51.384;0.040;2023-02-15T11:46:19;34.20;;;21.50;;
27706;SDS011;36332;51.384;0.040;2023-02-15T11:48:50;37.55;;;20.58;;
27706;SDS011;36332;51.384;0.040;2023-02-15T11:51:18;29.70;;;19.67;;
27706;SDS011;36332;51.384;0.040;2023-02-15T11:53:50;34.05;;;19.95;;
27706;SDS011;36332;51.384;0.040;2023-02-15T11:56:20;33.95;;;20.52;;
27706;SDS011;36332;51.384;0.040;2023-02-15T11:58:53;32.75;;;19.90;;
27706;SDS011;36332;51.384;0.040;2023-02-15T12:01:35;34.17;;;19.25;;
27706;SDS011;36332;51.384;0.040;2023-02-15T12:04:14;37.55;;;19.58;;
27706;SDS011;36332;51.384;0.040;2023-02-15T12:07:17;34.42;;;20.58;;
27706;SDS011;36332;51.384;0.040;2023-02-15T12:10:05;37.95;;;20.10;;
27706;SDS011;36332;51.384;0.040;2023-02-15T12:13:15;31.23;;;18.70;;
27706;SDS011;36332;51.384;0.040;2023-02-15T12:15:51;28.48;;;17.98;;
27706;SDS011;36332;51.384;0.040;2023-02-15T12:20:52;36.22;;;18.60;;
27706;SDS011;36332;51.384;0.040;2023-02-15T12:23:21;30.13;;;17.00;;
27706;SDS011;36332;51.384;0.040;2023-02-15T12:25:51;28.45;;;16.30;;
27706;SDS011;36332;51.384;0.040;2023-02-15T12:28:36;30.77;;;17.35;;
27706;SDS011;36332;51.384;0.040;2023-02-15T12:31:19;28.92;;;17.42;;
27706;SDS011;36332;51.384;0.040;2023-02-15T12:33:52;29.98;;;16.98;;
27706;SDS011;36332;51.384;0.040;2023-02-15T12:36:24;23.88;;;15.45;;
27706;SDS011;36332;51.384;0.040;2023-02-15T12:39:03;34.95;;;16.40;;
27706;SDS011;36332;51.384;0.040;2023-02-15T12:42:00;28.80;;;16.73;;
27706;SDS011;36332;51.384;0.040;2023-02-15T12:44:31;28.88;;;16.52;;
27706;SDS011;36332;51.384;0.040;2023-02-15T12:47:05;25.27;;;16.15;;
27706;SDS011;36332;51.384;0.040;2023-02-15T12:50:04;26.05;;;15.10;;
27706;SDS011;36332;51.384;0.040;2023-02-15T12:52:44;34.35;;;17.40;;
27706;SDS011;36332;51.384;0.040;2023-02-15T12:55:26;29.45;;;16.35;;
27706;SDS011;36332;51.384;0.040;2023-02-15T12:58:16;28.63;;;15.85;;
27706;SDS011;36332;51.384;0.040;2023-02-15T13:03:38;36.80;;;15.95;;
27706;SDS011;36332;51.384;0.040;2023-02-15T13:06:27;29.50;;;15.38;;
27706;SDS011;36332;51.384;0.040;2023-02-15T13:09:06;33.28;;;14.45;;
27706;SDS011;36332;51.384;0.040;2023-02-15T13:11:44;24.77;;;14.80;;
27706;SDS011;36332;51.384;0.040;2023-02-15T13:14:19;26.98;;;14.93;;
27706;SDS011;36332;51.384;0.040;2023-02-15T13:17:02;32.20;;;14.80;;
27706;SDS011;36332;51.384;0.040;2023-02-15T13:19:42;26.10;;;14.80;;
27706;SDS011;36332;51.384;0.040;2023-02-15T13:22:17;25.27;;;14.98;;
27706;SDS011;36332;51.384;0.040;2023-02-15T13:24:53;28.67;;;15.23;;
27706;SDS011;36332;51.384;0.040;2023-02-15T13:27:29;27.52;;;14.90;;
27706;SDS011;36332;51.384;0.040;2023-02-15T13:30:10;29.40;;;14.90;;
27706;SDS011;36332;51.384;0.040;2023-02-15T13:32:46;29.13;;;14.85;;
27706;SDS011;36332;51.384;0.040;2023-02-15T13:35:18;25.38;;;14.52;;
27706;SDS011;36332;51.384;0.040;2023-02-15T13:40:55;27.63;;;13.60;;
27706;SDS011;36332;51.384;0.040;2023-02-15T13:43:35;29.95;;;12.88;;
27706;SDS011;36332;51.384;0.040;2023-02-15T13:46:42;29.33;;;13.20;;
27706;SDS011;36332;51.384;0.040;2023-02-15T13:52:24;21.08;;;11.48;;
27706;SDS011;36332;51.384;0.040;2023-02-15T14:00:30;20.90;;;10.73;;
27706;SDS011;36332;51.384;0.040;2023-02-15T14:06:23;23.20;;;11.05;;
27706;SDS011;36332;51.384;0.040;2023-02-15T14:09:10;20.15;;;10.52;;
27706;SDS011;36332;51.384;0.040;2023-02-15T14:15:08;19.23;;;10.10;;
27706;SDS011;36332;51.384;0.040;2023-02-15T14:29:41;23.30;;;11.85;;
27706;SDS011;36332;51.384;0.040;2023-02-15T14:38:13;18.23;;;8.93;;
27706;SDS011;36332;51.384;0.040;2023-02-15T14:46:38;24.05;;;9.43;;
27706;SDS011;36332;51.384;0.040;2023-02-15T14:49:22;22.13;;;9.15;;
27706;SDS011;36332;51.384;0.040;2023-02-15T14:51:53;22.90;;;9.77;;
27706;SDS011;36332;51.384;0.040;2023-02-15T15:02:15;18.85;;;9.35;;
27706;SDS011;36332;51.384;0.040;2023-02-15T15:04:52;21.67;;;11.95;;
27706;SDS011;36332;51.384;0.040;2023-02-15T15:07:27;23.98;;;11.93;;
27706;SDS011;36332;51.384;0.040;2023-02-15T15:12:49;24.63;;;13.30;;
27706;SDS011;36332;51.384;0.040;2023-02-15T15:17:56;20.52;;;10.23;;
27706;SDS011;36332;51.384;0.040;2023-02-15T15:47:53;24.67;;;8.55;;
27706;SDS011;36332;51.384;0.040;2023-02-15T15:50:42;16.77;;;8.48;;
27706;SDS011;36332;51.384;0.040;2023-02-15T15:53:21;20.70;;;8.55;;
27706;SDS011;36332;51.384;0.040;2023-02-15T15:55:52;18.92;;;9.30;;
27706;SDS011;36332;51.384;0.040;2023-02-15T15:58:28;22.10;;;9.75;;
27706;SDS011;36332;51.384;0.040;2023-02-15T16:01:01;19.70;;;10.18;;
27706;SDS011;36332;51.384;0.040;2023-02-15T16:03:38;30.65;;;12.15;;
27706;SDS011;36332;51.384;0.040;2023-02-15T16:06:36;22.73;;;10.60;;
27706;SDS011;36332;51.384;0.040;2023-02-15T16:11:49;19.98;;;11.23;;
27706;SDS011;36332;51.384;0.040;2023-02-15T16:14:26;23.65;;;10.38;;
27706;SDS011;36332;51.384;0.040;2023-02-15T16:17:04;20.35;;;10.85;;
27706;SDS011;36332;51.384;0.040;2023-02-15T16:19:35;29.65;;;11.10;;
27706;SDS011;36332;51.384;0.040;2023-02-15T16:22:21;29.27;;;11.50;;
27706;SDS011;36332;51.384;0.040;2023-02-15T16:27:41;29.48;;;10.65;;
27706;SDS011;36332;51.384;0.040;2023-02-15T16:30:29;25.05;;;11.05;;
27706;SDS011;36332;51.384;0.040;2023-02-15T16:33:08;25.80;;;10.77;;
27706;SDS011;36332;51.384;0.040;2023-02-15T16:35:52;22.67;;;10.75;;
27706;SDS011;36332;51.384;0.040;2023-02-15T16:41:14;22.23;;;10.82;;
27706;SDS011;36332;51.384;0.040;2023-02-15T16:43:45;28.50;;;11.70;;
27706;SDS011;36332;51.384;0.040;2023-02-15T16:46:33;22.02;;;11.68;;
27706;SDS011;36332;51.384;0.040;2023-02-15T16:49:11;25.10;;;11.48;;
27706;SDS011;36332;51.384;0.040;2023-02-15T16:51:59;26.05;;;10.75;;
27706;SDS011;36332;51.384;0.040;2023-02-15T16:54:33;22.48;;;12.20;;
27706;SDS011;36332;51.384;0.040;2023-02-15T16:57:02;20.83;;;12.00;;
27706;SDS011;36332;51.384;0.040;2023-02-15T16:59:41;28.33;;;12.50;;
27706;SDS011;36332;51.384;0.040;2023-02-15T17:02:52;27.73;;;12.25;;
27706;SDS011;36332;51.384;0.040;2023-02-15T17:05:29;21.65;;;11.43;;
27706;SDS011;36332;51.384;0.040;2023-02-15T17:08:15;22.58;;;12.27;;
27706;SDS011;36332;51.384;0.040;2023-02-15T17:11:03;23.02;;;11.80;;
27706;SDS011;36332;51.384;0.040;2023-02-15T17:13:39;20.88;;;10.90;;
27706;SDS011;36332;51.384;0.040;2023-02-15T17:16:32;24.40;;;11.57;;
27706;SDS011;36332;51.384;0.040;2023-02-15T17:19:12;34.00;;;11.45;;
27706;SDS011;36332;51.384;0.040;2023-02-15T17:22:01;30.60;;;11.95;;
27706;SDS011;36332;51.384;0.040;2023-02-15T17:24:42;23.60;;;10.98;;
27706;SDS011;36332;51.384;0.040;2023-02-15T17:27:17;28.13;;;11.40;;
27706;SDS011;36332;51.384;0.040;2023-02-15T17:29:51;33.17;;;12.30;;
27706;SDS011;36332;51.384;0.040;2023-02-15T17:32:24;24.48;;;12.07;;
27706;SDS011;36332;51.384;0.040;2023-02-15T17:37:28;32.92;;;12.55;;
27706;SDS011;36332;51.384;0.040;2023-02-15T17:39:59;32.40;;;14.05;;
27706;SDS011;36332;51.384;0.040;2023-02-15T17:42:28;28.00;;;14.02;;
27706;SDS011;36332;51.384;0.040;2023-02-15T17:44:56;30.70;;;14.93;;
27706;SDS011;36332;51.384;0.040;2023-02-15T17:47:39;28.65;;;13.52;;
27706;SDS011;36332;51.384;0.040;2023-02-15T17:50:18;28.02;;;13.60;;
27706;SDS011;36332;51.384;0.040;2023-02-15T17:52:52;37.25;;;15.32;;
27706;SDS011;36332;51.384;0.040;2023-02-15T17:55:24;28.17;;;14.57;;
27706;SDS011;36332;51.384;0.040;2023-02-15T17:58:10;30.02;;;14.60;;
27706;SDS011;36332;51.384;0.040;2023-02-15T18:00:45;30.13;;;13.98;;
27706;SDS011;36332;51.384;0.040;2023-02-15T18:03:41;31.70;;;14.63;;
27706;SDS011;36332;51.384;0.040;2023-02-15T18:06:33;31.95;;;14.60;;
27706;SDS011;36332;51.384;0.040;2023-02-15T18:09:23;26.83;;;14.30;;
27706;SDS011;36332;51.384;0.040;2023-02-15T18:12:29;32.00;;;14.45;;
27706;SDS011;36332;51.384;0.040;2023-02-15T18:15:02;24.25;;;13.85;;
27706;SDS011;36332;51.384;0.040;2023-02-15T18:17:35;33.55;;;13.68;;
27706;SDS011;36332;51.384;0.040;2023-02-15T18:20:32;26.35;;;13.75;;
27706;SDS011;36332;51.384;0.040;2023-02-15T18:23:04;38.67;;;13.90;;
27706;SDS011;36332;51.384;0.040;2023-02-15T18:25:33;60.33;;;16.33;;
27706;SDS011;36332;51.384;0.040;2023-02-15T18:28:01;38.78;;;17.17;;